Time;durP1;ratioP1;P1;durP2;ratioP2;P2;SDS_P1;SDS_P2;PMS_P1;PMS_P2;Temp;Humidity;BMP_temperature;BMP_pressure;BME280_temperature;BME280_humidity;BME280_pressure;Samples;Min_cycle;Max_cycle;Signal;HPM_P1;HPM_P2
2022/04/08 00:04:30;;;;;;;6.43;4.32;;;;;;;5.88;77.64;99542.66;10375280;28;20042;-76
2022/04/08 00:09:31;;;;;;;9.40;4.68;;;;;;;4.73;78.16;99362.94;10375998;28;20125;-76
2022/04/08 00:14:33;;;;;;;7.80;4.63;;;;;;;4.42;78.55;99291.53;10374790;28;20064;-76
2022/04/08 00:19:36;;;;;;;9.90;4.53;;;;;;;5.33;79.06;99438.47;10375408;28;20108;-76
2022/04/08 00:24:37;;;;;;;7.33;4.10;;;;;;;5.56;78.77;99467.72;10375086;28;20038;-76
2022/04/08 00:29:38;;;;;;;7.13;4.80;;;;;;;5.17;79.31;99397.06;10375803;28;20486;-76
2022/04/08 00:34:39;;;;;;;10.88;5.22;;;;;;;5.54;79.74;99472.31;10374657;28;20108;-76
2022/04/08 00:39:40;;;;;;;6.70;5.22;;;;;;;3.75;79.89;99180.84;10374527;28;20042;-76
2022/04/08 00:44:40;;;;;;;7.20;5.15;;;;;;;5.51;80.19;99456.00;10374973;28;20038;-76
2022/04/08 00:49:42;;;;;;;6.82;4.75;;;;;;;5.08;80.39;99382.19;10373578;28;20065;-76
2022/04/08 00:54:45;;;;;;;8.35;5.10;;;;;;;4.94;81.26;99345.94;10373390;28;20045;-76
2022/04/08 00:59:46;;;;;;;6.95;4.78;;;;;;;4.78;81.44;99309.81;10370780;28;20049;-72
2022/04/08 01:04:47;;;;;;;8.07;5.53;;;;;;;5.24;81.30;99376.22;10373132;28;20037;-76
2022/04/08 01:09:51;;;;;;;9.30;6.05;;;;;;;5.03;82.54;99342.38;10372884;28;20045;-76
2022/04/08 01:14:59;;;;;;;8.05;5.40;;;;;;;4.41;82.65;99252.25;10373346;28;20042;-76
2022/04/08 01:20:00;;;;;;;9.48;5.55;;;;;;;5.08;81.42;99352.44;10355985;28;20053;-76
2022/04/08 01:25:05;;;;;;;6.72;4.88;;;;;;;5.60;82.13;99415.56;10372988;28;20520;-76
2022/04/08 01:30:09;;;;;;;8.75;6.00;;;;;;;5.52;82.15;99423.41;10372355;28;20042;-77
2022/04/08 01:35:10;;;;;;;6.53;4.85;;;;;;;5.33;81.54;99398.16;10372538;28;20073;-76
2022/04/08 01:40:11;;;;;;;9.27;5.60;;;;;;;5.32;81.62;99418.38;10372477;28;20049;-76
2022/04/08 01:45:13;;;;;;;9.50;5.65;;;;;;;4.45;82.05;99253.59;10373033;28;20038;-76
2022/04/08 01:50:18;;;;;;;10.30;6.68;;;;;;;5.08;81.69;99378.75;10372818;28;20082;-76
2022/04/08 01:55:19;;;;;;;10.68;6.45;;;;;;;4.46;82.47;99299.97;10371528;28;20042;-76
2022/04/08 02:00:20;;;;;;;9.93;6.05;;;;;;;5.09;82.81;99388.31;10371735;28;20042;-77
2022/04/08 02:05:21;;;;;;;10.45;7.25;;;;;;;4.78;83.02;99338.78;10371782;28;20041;-76
2022/04/08 02:10:24;;;;;;;12.52;5.60;;;;;;;4.93;83.05;99334.56;10371926;28;20034;-76
2022/04/08 02:15:32;;;;;;;11.20;6.13;;;;;;;3.75;85.07;99146.69;10371820;28;20489;-76
2022/04/08 02:20:34;;;;;;;8.98;5.93;;;;;;;4.30;84.44;99256.78;10372330;28;20489;-76
2022/04/08 02:25:35;;;;;;;8.45;5.57;;;;;;;4.01;83.94;99209.78;10372364;28;20049;-76
2022/04/08 02:30:36;;;;;;;7.88;5.45;;;;;;;4.11;84.35;99199.97;10380198;28;20068;-76
2022/04/08 02:35:37;;;;;;;12.80;6.00;;;;;;;4.48;85.50;99253.28;10376557;28;20041;-75
2022/04/08 02:40:38;;;;;;;13.10;5.45;;;;;;;4.78;85.52;99284.34;10350925;28;20539;-76
2022/04/08 02:45:39;;;;;;;9.27;6.18;;;;;;;4.55;86.74;99231.47;10335742;28;20537;-76
2022/04/08 02:50:41;;;;;;;9.95;6.53;;;;;;;4.14;91.67;99156.78;10358291;28;20464;-76
2022/04/08 02:55:41;;;;;;;10.10;6.47;;;;;;;4.50;92.57;99167.16;10332345;28;20494;-76
2022/04/08 03:00:42;;;;;;;12.00;7.20;;;;;;;4.85;92.26;99195.09;10352954;28;20141;-76
2022/04/08 03:05:43;;;;;;;9.82;6.70;;;;;;;5.07;91.39;99171.78;10354501;28;20042;-75
2022/04/08 03:10:44;;;;;;;8.82;5.60;;;;;;;4.57;89.74;99048.00;10360852;28;20528;-75
2022/04/08 03:15:45;;;;;;;8.50;6.00;;;;;;;5.88;89.17;99192.91;10346793;28;20141;-76
2022/04/08 03:20:46;;;;;;;7.75;5.10;;;;;;;6.20;87.97;99193.09;10337089;28;20045;-76
2022/04/08 03:25:46;;;;;;;14.73;6.28;;;;;;;5.90;87.78;99118.97;10337382;28;20077;-76
2022/04/08 03:30:48;;;;;;;10.70;5.05;;;;;;;7.12;86.40;99238.25;10336830;28;20070;-76
2022/04/08 03:35:48;;;;;;;10.27;4.50;;;;;;;7.74;84.53;99209.94;10336729;28;20070;-76
2022/04/08 03:40:49;;;;;;;21.95;4.78;;;;;;;8.57;82.65;99226.75;10346823;28;20046;-76
2022/04/08 03:45:50;;;;;;;6.60;3.60;;;;;;;9.35;81.51;99193.44;10338814;28;20050;-76
2022/04/08 03:50:51;;;;;;;7.93;3.88;;;;;;;9.33;78.32;99094.78;10345759;28;20149;-76
2022/04/08 03:55:52;;;;;;;5.38;4.00;;;;;;;10.30;76.99;99204.69;10344199;28;20095;-77
2022/04/08 04:00:53;;;;;;;6.88;3.63;;;;;;;10.32;74.79;99136.31;10349780;28;20121;-76
2022/04/08 04:05:54;;;;;;;10.18;3.72;;;;;;;11.05;73.69;99215.53;10345303;28;20125;-76
2022/04/08 04:10:55;;;;;;;7.93;5.03;;;;;;;11.20;72.06;99202.91;10334021;28;20485;-77
2022/04/08 04:15:55;;;;;;;14.80;4.85;;;;;;;11.30;70.44;99197.19;10334853;28;20494;-77
2022/04/08 04:20:56;;;;;;;9.63;4.70;;;;;;;11.46;69.37;99180.03;10334040;28;20042;-77
2022/04/08 04:25:57;;;;;;;8.57;3.00;;;;;;;10.64;68.06;99049.84;10333618;28;20041;-77
2022/04/08 04:31:03;;;;;;;6.45;3.20;;;;;;;11.16;67.51;99113.94;10334252;28;20501;-78
2022/04/08 04:36:04;;;;;;;9.23;3.50;;;;;;;11.13;67.19;99109.84;10356829;28;20108;-79
2022/04/08 04:41:23;;;;;;;20.55;6.05;;;;;;;11.52;66.58;99168.63;10335550;28;20457;-77
2022/04/08 04:46:24;;;;;;;9.68;3.88;;;;;;;11.31;66.88;99132.38;10337378;28;20042;-76
2022/04/08 04:51:26;;;;;;;13.48;3.83;;;;;;;10.74;67.07;99084.00;10371448;28;20077;-77
2022/04/08 04:56:27;;;;;;;9.88;3.38;;;;;;;10.59;68.52;99134.63;10373472;28;20057;-77
2022/04/08 05:01:28;;;;;;;8.13;2.97;;;;;;;10.08;68.22;99031.44;10373441;28;20516;-77
2022/04/08 05:06:28;;;;;;;8.77;3.45;;;;;;;10.68;68.38;99103.41;10374017;28;20034;-76
2022/04/08 05:11:29;;;;;;;12.38;3.55;;;;;;;10.19;68.86;99024.72;10372916;28;20069;-77
2022/04/08 05:16:30;;;;;;;12.05;3.20;;;;;;;11.04;67.82;99089.81;10373182;28;20048;-77
2022/04/08 05:21:31;;;;;;;10.20;3.65;;;;;;;11.00;67.75;99088.56;10373163;28;20042;-78
2022/04/08 05:26:32;;;;;;;13.32;4.00;;;;;;;10.55;67.78;98966.06;10373016;28;20048;-76
2022/04/08 05:31:33;;;;;;;13.90;3.47;;;;;;;11.12;66.08;99009.03;10373167;28;20048;-77
2022/04/08 05:36:34;;;;;;;6.57;3.33;;;;;;;12.10;66.11;99100.44;10372691;28;20048;-78
2022/04/08 05:41:34;;;;;;;6.95;3.10;;;;;;;11.42;64.42;98958.91;10371912;28;20049;-79
2022/04/08 05:46:35;;;;;;;8.13;2.90;;;;;;;11.38;64.62;98997.59;10372903;28;20038;-77
2022/04/08 05:51:36;;;;;;;8.52;2.90;;;;;;;11.73;65.05;99045.22;10372320;28;20069;-78
2022/04/08 05:56:37;;;;;;;9.85;2.88;;;;;;;12.08;63.98;99061.75;10371543;28;20521;-78
2022/04/08 06:01:38;;;;;;;10.15;3.30;;;;;;;11.66;63.78;98946.78;10373078;28;20065;-77
2022/04/08 06:06:43;;;;;;;8.65;2.92;;;;;;;12.02;62.78;98940.97;10379850;28;20095;-77
2022/04/08 06:11:44;;;;;;;13.63;3.00;;;;;;;12.38;62.01;98986.66;10379976;28;20041;-78
2022/04/08 06:16:44;;;;;;;8.90;2.72;;;;;;;12.22;62.22;99006.63;10380604;28;20144;-79
2022/04/08 06:21:45;;;;;;;9.02;2.90;;;;;;;12.02;62.61;98998.69;10379954;28;20120;-80
2022/04/08 06:26:46;;;;;;;7.95;2.42;;;;;;;12.58;62.47;99027.34;10380079;28;20049;-77
2022/04/08 06:31:47;;;;;;;9.23;2.83;;;;;;;12.57;59.28;98916.50;10379031;28;20405;-79
2022/04/08 06:36:48;;;;;;;5.40;2.30;;;;;;;14.06;58.26;99048.13;10379509;28;20057;-79
2022/04/08 06:41:48;;;;;;;17.55;2.90;;;;;;;13.38;56.72;98917.47;10378472;28;20069;-80
2022/04/08 06:46:49;;;;;;;5.90;2.17;;;;;;;14.40;56.65;99016.50;10379184;28;20735;-78
2022/04/08 06:51:53;;;;;;;6.72;2.60;;;;;;;15.01;55.38;99047.53;10378672;28;20089;-80
2022/04/08 06:56:54;;;;;;;6.97;2.53;;;;;;;15.70;54.64;99039.06;10378754;28;20144;-78
2022/04/08 07:01:54;;;;;;;17.42;2.53;;;;;;;15.24;53.91;98938.97;10378320;28;20128;-78
2022/04/08 07:06:56;;;;;;;7.40;2.70;;;;;;;15.57;53.29;99026.69;10377544;28;20128;-81
2022/04/08 07:11:56;;;;;;;9.10;2.88;;;;;;;15.44;53.22;98989.47;10359432;28;20042;-78
2022/04/08 07:16:57;;;;;;;6.25;2.28;;;;;;;15.46;52.57;99036.34;10378044;28;20049;-77
2022/04/08 07:21:58;;;;;;;25.30;3.65;;;;;;;14.75;51.86;98954.38;10377341;28;20476;-80
2022/04/08 07:26:59;;;;;;;39.40;4.25;;;;;;;15.34;52.13;99024.81;10376812;28;20049;-77
2022/04/08 07:31:59;;;;;;;9.73;2.50;;;;;;;15.05;51.61;98959.66;10377034;28;20033;-79
2022/04/08 07:37:00;;;;;;;29.02;3.15;;;;;;;15.40;50.46;99031.91;10377060;28;20045;-79
2022/04/08 07:42:01;;;;;;;10.05;2.28;;;;;;;14.95;50.69;98978.13;10377252;28;20038;-78
2022/04/08 07:47:02;;;;;;;8.00;2.08;;;;;;;14.94;51.16;98963.94;10375966;28;20065;-77
2022/04/08 07:52:03;;;;;;;7.15;1.98;;;;;;;13.97;50.57;98830.56;10375621;28;20057;-78
2022/04/08 07:57:04;;;;;;;18.13;2.40;;;;;;;14.85;50.82;98981.38;10375987;28;20053;-78
2022/04/08 08:02:05;;;;;;;7.68;1.90;;;;;;;15.23;50.92;99012.25;10376719;28;20045;-77
2022/04/08 08:07:06;;;;;;;7.78;1.92;;;;;;;15.13;49.94;98994.09;10375757;28;20037;-86
2022/04/08 08:12:07;;;;;;;9.30;2.10;;;;;;;14.89;49.34;98961.13;10375704;28;20038;-77
2022/04/08 08:17:08;;;;;;;6.85;1.50;;;;;;;15.11;48.64;98933.88;10375391;28;20081;-78
2022/04/08 08:22:09;;;;;;;12.68;2.47;;;;;;;16.42;47.76;98985.94;10376230;28;20080;-78
2022/04/08 08:27:10;;;;;;;9.70;1.95;;;;;;;16.86;45.87;98913.78;10373529;28;20041;-78
2022/04/08 08:32:10;;;;;;;16.23;2.60;;;;;;;17.29;43.76;98931.09;10374366;28;20042;-78
2022/04/08 08:37:11;;;;;;;26.40;3.38;;;;;;;17.50;43.70;98902.66;10373925;28;20521;-78
2022/04/08 08:42:13;;;;;;;12.57;3.63;;;;;;;18.27;42.47;98976.16;10375214;28;20057;-79
2022/04/08 08:47:17;;;;;;;27.25;7.65;;;;;;;18.32;42.82;98961.97;10374305;28;20041;-78
2022/04/08 08:52:21;;;;;;;8.00;2.40;;;;;;;18.29;42.25;98978.59;10373569;28;20548;-78
2022/04/08 08:57:23;;;;;;;19.50;1.95;;;;;;;17.55;43.27;98783.75;10373997;28;20096;-78
2022/04/08 09:02:23;;;;;;;14.52;2.05;;;;;;;17.97;42.37;98850.31;10373894;28;20089;-78
2022/04/08 09:07:28;;;;;;;13.13;3.05;;;;;;;17.74;42.00;98873.69;10373814;28;20072;-79
2022/04/08 09:12:28;;;;;;;7.75;2.35;;;;;;;18.02;42.12;98886.13;10373383;28;20045;-79
2022/04/08 09:17:30;;;;;;;6.07;1.85;;;;;;;18.44;41.99;98916.91;10372483;28;20056;-79
2022/04/08 09:22:36;;;;;;;11.52;2.15;;;;;;;17.90;42.04;98798.69;10373569;28;20041;-78
2022/04/08 09:27:41;;;;;;;15.60;2.63;;;;;;;18.50;41.78;98891.69;10372515;28;20045;-78
2022/04/08 09:32:41;;;;;;;16.48;2.53;;;;;;;18.73;41.75;98903.22;10373112;28;20038;-78
2022/04/08 09:37:43;;;;;;;24.27;2.53;;;;;;;18.39;42.51;98873.84;10371756;28;20045;-79
2022/04/08 09:42:45;;;;;;;13.10;2.65;;;;;;;18.81;42.68;98941.22;10372095;28;20219;-78
2022/04/08 09:47:46;;;;;;;17.60;2.92;;;;;;;18.48;42.59;98904.56;10371966;28;20497;-79
2022/04/08 09:52:47;;;;;;;14.45;2.13;;;;;;;18.07;43.13;98854.97;10371939;28;20082;-77
2022/04/08 09:57:51;;;;;;;13.35;2.35;;;;;;;18.66;41.85;98909.59;10371789;28;20513;-77
2022/04/08 10:02:58;;;;;;;9.85;2.15;;;;;;;18.39;42.47;98889.97;10372180;28;20037;-78
2022/04/08 10:08:00;;;;;;;16.02;2.67;;;;;;;17.38;43.28;98772.28;10372645;28;20049;-78
2022/04/08 10:13:15;;;;;;;21.83;2.50;;;;;;;18.10;42.99;98843.72;10372614;28;20037;-80
2022/04/08 10:18:16;;;;;;;16.45;2.60;;;;;;;18.43;42.41;98870.41;10372457;28;20045;-80
2022/04/08 10:23:18;;;;;;;14.60;2.60;;;;;;;18.54;43.15;98892.00;10371606;28;20042;-77
2022/04/08 10:28:19;;;;;;;25.23;2.40;;;;;;;18.22;43.31;98844.41;10371734;28;20041;-78
2022/04/08 10:33:28;;;;;;;18.38;3.17;;;;;;;18.53;43.64;98893.88;10370829;28;20452;-78
2022/04/08 10:38:37;;;;;;;28.15;3.08;;;;;;;18.46;43.34;98922.88;10370949;28;20112;-78
2022/04/08 10:43:48;;;;;;;16.08;2.35;;;;;;;18.55;42.56;98932.09;10371496;28;20053;-78
2022/04/08 10:48:55;;;;;;;19.80;2.85;;;;;;;18.53;42.57;98837.41;10374524;28;20037;-78
2022/04/08 10:54:05;;;;;;;20.00;2.50;;;;;;;19.97;41.67;98949.53;10378715;28;20448;-77
2022/04/08 10:59:07;;;;;;;13.45;2.53;;;;;;;19.60;41.34;98816.53;10378739;28;20042;-78
2022/04/08 11:04:08;;;;;;;20.95;2.63;;;;;;;19.26;40.79;98783.78;10377972;28;20084;-77
2022/04/08 11:09:19;;;;;;;21.48;3.08;;;;;;;19.96;39.58;98929.03;10378650;28;20042;-77
2022/04/08 11:14:21;;;;;;;11.52;2.45;;;;;;;19.51;39.97;98944.69;10377289;28;20052;-77
2022/04/08 11:19:22;;;;;;;22.77;2.22;;;;;;;18.94;41.09;98870.03;10377860;28;20127;-79
2022/04/08 11:24:23;;;;;;;27.70;2.55;;;;;;;19.80;40.89;98963.19;10377139;28;20045;-77
2022/04/08 11:29:27;;;;;;;14.90;2.30;;;;;;;20.05;40.18;98911.28;10377803;28;20046;-77
2022/04/08 11:34:28;;;;;;;15.50;2.28;;;;;;;20.39;39.58;98959.38;10376436;28;20120;-78
2022/04/08 11:39:31;;;;;;;20.60;2.92;;;;;;;20.42;39.86;98938.06;10376935;28;20524;-78
2022/04/08 11:44:32;;;;;;;17.13;2.33;;;;;;;20.40;39.96;98967.19;10358764;28;20042;-78
2022/04/08 11:49:33;;;;;;;17.17;2.38;;;;;;;19.91;40.32;98929.00;10376808;28;20038;-78
2022/04/08 11:54:39;;;;;;;13.10;2.78;;;;;;;19.27;41.02;98830.41;10376764;28;20505;-78
2022/04/08 11:59:40;;;;;;;14.57;2.45;;;;;;;19.78;41.21;98928.44;10376252;28;20136;-78
2022/04/08 12:04:41;;;;;;;21.60;3.38;;;;;;;19.82;41.02;98926.00;10375496;28;20100;-76
2022/04/08 12:09:42;;;;;;;14.18;2.45;;;;;;;19.12;41.40;98825.75;10376398;28;20509;-77
2022/04/08 12:14:43;;;;;;;16.40;3.13;;;;;;;19.14;40.76;98800.19;10357767;28;20092;-77
2022/04/08 12:19:47;;;;;;;17.00;2.90;;;;;;;20.62;39.72;98944.59;10375151;28;20041;-76
2022/04/08 12:24:49;;;;;;;19.45;3.28;;;;;;;20.65;39.40;98949.47;10375655;28;20421;-76
2022/04/08 12:30:08;;;;;;;14.75;2.92;;;;;;;19.82;38.02;98845.19;10375005;28;20104;-76
2022/04/08 12:35:11;;;;;;;19.63;2.67;;;;;;;19.55;39.03;98907.28;10375097;28;20497;-76
2022/04/08 12:40:12;;;;;;;54.83;3.87;;;;;;;19.25;40.05;98950.97;10374778;28;20037;-77
2022/04/08 12:45:13;;;;;;;19.08;3.25;;;;;;;18.11;40.32;98800.50;10364498;28;20038;-79
2022/04/08 12:50:14;;;;;;;18.77;2.63;;;;;;;19.03;40.52;98978.00;10355857;28;20050;-78
2022/04/08 12:55:15;;;;;;;13.30;2.20;;;;;;;19.14;40.56;98975.16;10334136;28;20485;-75
2022/04/08 13:00:16;;;;;;;16.92;2.08;;;;;;;19.11;40.90;98929.88;10333356;28;20177;-78
2022/04/08 13:05:19;;;;;;;16.25;2.60;;;;;;;19.70;40.61;99003.56;10333380;28;20042;-77
2022/04/08 13:10:20;;;;;;;13.43;2.40;;;;;;;19.52;40.84;99005.56;10358374;28;20045;-78
2022/04/08 13:15:21;;;;;;;21.08;2.50;;;;;;;18.22;40.67;98829.09;10373675;28;20487;-76
2022/04/08 13:20:22;;;;;;;18.20;2.58;;;;;;;18.40;41.34;98887.03;10372553;28;20100;-76
2022/04/08 13:25:24;;;;;;;11.88;2.45;;;;;;;19.07;41.67;98996.06;10346803;28;20066;-76
2022/04/08 13:30:25;;;;;;;18.98;2.58;;;;;;;19.27;41.70;99029.63;10334441;28;20050;-75
2022/04/08 13:35:26;;;;;;;14.90;2.63;;;;;;;19.46;41.72;99044.31;10345125;28;20046;-74
2022/04/08 13:40:27;;;;;;;15.65;2.58;;;;;;;19.29;41.37;99028.28;10341941;28;20441;-75
2022/04/08 13:45:28;;;;;;;19.02;2.97;;;;;;;19.37;41.90;99051.22;10349100;28;20053;-78
2022/04/08 13:50:29;;;;;;;17.38;2.95;;;;;;;18.68;41.76;98961.25;10372423;28;20034;-76
2022/04/08 13:55:29;;;;;;;17.75;2.70;;;;;;;18.20;41.96;98898.41;10371568;28;20058;-75
2022/04/08 14:00:32;;;;;;;13.18;2.05;;;;;;;18.93;42.63;99062.13;10372521;28;20061;-79
2022/04/08 14:05:33;;;;;;;15.73;2.90;;;;;;;18.65;42.97;99052.41;10345509;28;20128;-78
2022/04/08 14:10:35;;;;;;;20.48;8.75;;;;;;;16.98;44.64;98757.31;10313660;28;20077;-77
2022/04/08 14:15:36;;;;;;;17.55;6.97;;;;;;;18.53;44.67;99025.66;10338434;28;20053;-77
2022/04/08 14:20:37;;;;;;;13.30;3.33;;;;;;;18.20;45.66;99034.66;10329502;28;20046;-76
2022/04/08 14:25:38;;;;;;;54.75;19.67;;;;;;;16.63;46.49;98852.25;10336866;28;20042;-74
2022/04/08 14:30:40;;;;;;;23.35;5.15;;;;;;;16.85;47.31;98944.34;10339834;28;20042;-78
2022/04/08 14:35:41;;;;;;;15.07;5.22;;;;;;;16.87;48.14;98987.00;10349203;28;20128;-78
2022/04/08 14:40:42;;;;;;;52.25;19.33;;;;;;;16.10;48.84;98901.72;10379338;28;20141;-76
2022/04/08 14:45:43;;;;;;;22.08;4.93;;;;;;;16.20;49.43;98955.47;10378411;28;20066;-75
2022/04/08 14:50:44;;;;;;;32.00;4.95;;;;;;;16.53;50.31;99011.06;10372092;28;20449;-77
2022/04/08 14:55:45;;;;;;;12.10;3.03;;;;;;;16.23;50.64;98964.91;10352945;28;20111;-76
2022/04/08 15:00:46;;;;;;;16.65;3.00;;;;;;;15.86;50.95;98911.69;10352133;28;20049;-76
2022/04/08 15:05:47;;;;;;;13.73;2.80;;;;;;;16.33;51.60;99002.63;10351575;28;20053;-75
2022/04/08 15:10:51;;;;;;;13.30;2.92;;;;;;;15.80;52.10;98967.00;10351845;28;20034;-76
2022/04/08 15:15:52;;;;;;;22.83;4.57;;;;;;;15.06;52.35;98868.50;10335472;28;20646;-75
2022/04/08 15:20:53;;;;;;;23.08;5.70;;;;;;;15.51;52.62;98961.53;10353352;28;20063;-77
2022/04/08 15:25:54;;;;;;;13.85;5.68;;;;;;;15.20;53.31;98929.81;10352653;28;20082;-74
2022/04/08 15:30:55;;;;;;;15.30;5.45;;;;;;;14.50;53.98;98869.81;10349636;28;20130;-76
2022/04/08 15:35:56;;;;;;;32.25;9.70;;;;;;;15.50;54.57;99042.06;10351247;28;20132;-76
2022/04/08 15:40:58;;;;;;;105.05;41.30;;;;;;;15.27;55.20;99053.53;10360303;28;20052;-75
2022/04/08 15:45:59;;;;;;;86.28;37.17;;;;;;;14.74;55.89;99022.25;10350658;28;20078;-75
2022/04/08 15:51:00;;;;;;;41.33;13.88;;;;;;;14.27;56.25;98996.13;10350092;28;20066;-77
2022/04/08 15:56:01;;;;;;;45.83;15.65;;;;;;;13.75;56.68;98939.63;10349955;28;20509;-76
2022/04/08 16:01:02;;;;;;;32.97;13.18;;;;;;;13.56;57.25;98935.34;10350160;28;20112;-74
2022/04/08 16:06:03;;;;;;;36.83;9.40;;;;;;;14.01;57.34;99047.97;10344287;28;20058;-76
2022/04/08 16:11:05;;;;;;;18.52;6.53;;;;;;;13.86;58.21;99071.56;10343589;28;20042;-75
2022/04/08 16:16:06;;;;;;;26.70;8.10;;;;;;;13.02;58.98;98969.66;10343118;28;20144;-74
2022/04/08 16:21:09;;;;;;;23.65;10.57;;;;;;;13.58;59.72;99104.00;10346813;28;20469;-76
2022/04/08 16:26:10;;;;;;;48.38;25.92;;;;;;;13.38;59.96;99109.53;10348293;28;20080;-77
2022/04/08 16:31:10;;;;;;;27.55;13.07;;;;;;;13.42;60.45;99154.22;10349860;28;20402;-75
2022/04/08 16:36:11;;;;;;;17.30;7.22;;;;;;;12.41;61.00;99034.19;10327754;28;20044;-77
2022/04/08 16:41:12;;;;;;;18.65;6.07;;;;;;;12.92;61.61;99150.56;10343874;28;20473;-77
2022/04/08 16:46:13;;;;;;;19.25;7.90;;;;;;;13.05;61.63;99187.84;10366515;28;20120;-76
2022/04/08 16:51:14;;;;;;;25.10;8.43;;;;;;;12.99;62.11;99194.84;10337008;28;20162;-76
2022/04/08 16:56:15;;;;;;;17.73;6.80;;;;;;;12.88;62.11;99190.16;10344814;28;20062;-78
2022/04/08 17:01:16;;;;;;;18.98;6.32;;;;;;;12.77;62.81;99199.66;10345065;28;20045;-75
2022/04/08 17:06:17;;;;;;;15.13;5.22;;;;;;;12.60;63.27;99198.47;10351803;28;20412;-74
2022/04/08 17:11:17;;;;;;;27.15;7.60;;;;;;;12.36;63.63;99188.47;10365896;28;20045;-79
2022/04/08 17:16:18;;;;;;;18.20;6.15;;;;;;;12.59;64.09;99235.94;10333155;28;20049;-75
2022/04/08 17:21:19;;;;;;;18.23;5.47;;;;;;;12.59;64.68;99271.41;10332602;28;20038;-75
2022/04/08 17:26:20;;;;;;;21.30;5.68;;;;;;;12.37;64.76;99251.34;10332505;28;20039;-75
2022/04/08 17:31:22;;;;;;;27.05;9.80;;;;;;;11.61;65.06;99119.50;10331661;28;20042;-75
2022/04/08 17:36:23;;;;;;;23.27;7.70;;;;;;;12.40;65.15;99272.25;10356208;28;20046;-75
2022/04/08 17:41:28;;;;;;;27.27;6.75;;;;;;;12.34;65.35;99279.22;10345081;28;20052;-75
2022/04/08 17:46:30;;;;;;;24.52;6.95;;;;;;;11.54;65.99;99164.69;10371956;28;20448;-76
2022/04/08 17:51:31;;;;;;;30.55;8.45;;;;;;;11.42;65.65;99163.66;10366385;28;20367;-75
2022/04/08 17:56:33;;;;;;;16.10;5.47;;;;;;;11.93;66.17;99282.88;10374988;28;20058;-74
2022/04/08 18:01:34;;;;;;;16.67;5.28;;;;;;;10.35;66.40;99066.91;10364431;28;20189;-74
2022/04/08 18:06:35;;;;;;;18.20;5.22;;;;;;;10.56;67.52;99131.50;10362564;28;20073;-74
2022/04/08 18:11:36;;;;;;;21.92;5.40;;;;;;;11.23;67.46;99246.88;10363726;28;20500;-75
2022/04/08 18:16:36;;;;;;;16.17;5.03;;;;;;;11.38;67.92;99290.06;10359800;28;20050;-75
2022/04/08 18:21:37;;;;;;;16.77;5.05;;;;;;;11.08;67.91;99247.84;10362855;28;20133;-74
2022/04/08 18:26:38;;;;;;;17.38;5.82;;;;;;;10.96;68.19;99249.41;10354731;28;20045;-75
2022/04/08 18:31:39;;;;;;;21.75;5.75;;;;;;;10.67;68.93;99243.31;10362298;28;20507;-74
2022/04/08 18:36:41;;;;;;;32.33;6.35;;;;;;;10.48;69.46;99247.50;10367094;28;20046;-77
2022/04/08 18:41:42;;;;;;;25.38;5.55;;;;;;;10.46;69.38;99264.63;10370000;28;20045;-74
2022/04/08 18:46:45;;;;;;;10.50;4.72;;;;;;;10.22;70.43;99277.28;10366102;28;20046;-74
2022/04/08 18:51:46;;;;;;;17.15;5.72;;;;;;;10.30;71.01;99313.53;10379742;28;20033;-75
2022/04/08 18:56:47;;;;;;;15.75;5.60;;;;;;;9.92;71.32;99251.94;10384960;28;20092;-74
2022/04/08 19:01:48;;;;;;;14.18;4.90;;;;;;;8.78;71.29;99079.53;10371023;28;20080;-76
2022/04/08 19:06:48;;;;;;;17.33;4.63;;;;;;;10.08;71.57;99304.75;10341783;28;20121;-75
2022/04/08 19:11:49;;;;;;;12.80;4.53;;;;;;;9.64;71.82;99289.00;10344467;28;20046;-75
2022/04/08 19:16:56;;;;;;;11.63;4.90;;;;;;;9.20;72.69;99264.22;10378389;28;20135;-75
2022/04/08 19:21:56;;;;;;;16.38;5.38;;;;;;;9.60;73.44;99305.28;10352383;28;20164;-75
2022/04/08 19:26:57;;;;;;;22.60;4.85;;;;;;;9.24;73.67;99262.84;10340880;28;20513;-75
2022/04/08 19:31:58;;;;;;;14.27;4.50;;;;;;;9.51;73.30;99314.34;10369267;28;20046;-77
2022/04/08 19:36:59;;;;;;;12.57;5.30;;;;;;;9.27;73.63;99270.44;10372095;28;20053;-76
2022/04/08 19:42:01;;;;;;;18.02;5.95;;;;;;;9.65;73.93;99303.88;10375543;28;20041;-75
2022/04/08 19:47:05;;;;;;;16.10;5.50;;;;;;;10.09;74.42;99348.03;10376831;28;20132;-75
2022/04/08 19:52:07;;;;;;;7.90;4.50;;;;;;;10.15;73.48;99349.91;10374141;28;20397;-75
2022/04/08 19:57:07;;;;;;;10.32;4.57;;;;;;;9.48;73.33;99244.97;10375102;28;20516;-75
2022/04/08 20:02:08;;;;;;;15.35;5.25;;;;;;;8.99;73.67;99166.97;10376567;28;20038;-75
2022/04/08 20:07:09;;;;;;;25.50;5.20;;;;;;;10.12;73.83;99363.56;10374301;28;20520;-75
2022/04/08 20:12:11;;;;;;;24.80;5.35;;;;;;;9.68;73.99;99287.59;10375969;28;20034;-75
2022/04/08 20:17:12;;;;;;;10.70;5.35;;;;;;;9.21;74.35;99217.34;10373246;28;20589;-75
2022/04/08 20:22:13;;;;;;;20.38;5.53;;;;;;;9.96;75.01;99360.13;10373878;28;20121;-75
2022/04/08 20:27:13;;;;;;;18.67;5.32;;;;;;;9.49;75.02;99291.69;10373862;28;20068;-75
2022/04/08 20:32:15;;;;;;;12.30;4.68;;;;;;;9.21;75.11;99265.03;10372782;28;20041;-75
2022/04/08 20:37:15;;;;;;;10.02;4.97;;;;;;;9.48;75.35;99345.69;10366601;28;20556;-74
2022/04/08 20:42:16;;;;;;;15.57;5.72;;;;;;;9.35;75.57;99330.47;10375326;28;20096;-74
2022/04/08 20:47:17;;;;;;;14.70;5.13;;;;;;;9.77;75.63;99381.94;10374032;28;20037;-75
2022/04/08 20:52:18;;;;;;;18.38;5.82;;;;;;;9.72;75.54;99387.81;10374117;28;20038;-74
2022/04/08 20:57:19;;;;;;;11.65;4.72;;;;;;;9.54;75.47;99388.22;10374113;28;20498;-74
2022/04/08 21:02:19;;;;;;;12.80;5.72;;;;;;;8.74;75.85;99304.16;10367991;28;20042;-75
2022/04/08 21:07:20;;;;;;;13.43;6.00;;;;;;;9.33;76.57;99391.63;10357485;28;20397;-75
2022/04/08 21:12:21;;;;;;;16.88;5.97;;;;;;;8.96;76.58;99344.81;10372962;28;20128;-74
2022/04/08 21:17:22;;;;;;;14.30;5.32;;;;;;;9.14;76.83;99392.97;10372734;28;20038;-74
2022/04/08 21:22:23;;;;;;;12.40;5.75;;;;;;;9.13;77.24;99393.97;10371113;28;20507;-74
2022/04/08 21:27:24;;;;;;;19.35;5.72;;;;;;;8.64;76.78;99336.19;10373776;28;20099;-74
2022/04/08 21:32:24;;;;;;;23.27;6.47;;;;;;;8.93;77.35;99387.56;10371152;28;20761;-74
2022/04/08 21:37:26;;;;;;;15.90;6.75;;;;;;;8.81;77.44;99387.16;10355286;28;20039;-74
2022/04/08 21:42:27;;;;;;;20.65;5.43;;;;;;;7.77;77.44;99249.25;10372910;28;20048;-74
2022/04/08 21:47:28;;;;;;;15.48;6.65;;;;;;;8.52;77.76;99398.50;10372480;28;20044;-75
2022/04/08 21:52:28;;;;;;;19.10;6.97;;;;;;;8.26;78.07;99382.16;10354926;28;20061;-74
2022/04/08 21:57:29;;;;;;;14.32;7.50;;;;;;;8.06;78.89;99357.97;10372223;28;20168;-74
2022/04/08 22:02:30;;;;;;;13.95;7.38;;;;;;;7.62;78.74;99289.84;10354616;28;20045;-74
2022/04/08 22:07:31;;;;;;;15.57;7.70;;;;;;;7.65;78.73;99294.78;10371841;28;20069;-75
2022/04/08 22:12:31;;;;;;;19.75;7.40;;;;;;;6.95;79.27;99182.09;10370204;28;20052;-75
2022/04/08 22:17:32;;;;;;;22.10;8.00;;;;;;;7.64;79.35;99306.34;10371605;28;20045;-74
2022/04/08 22:22:33;;;;;;;16.98;8.32;;;;;;;8.00;79.49;99368.25;10371719;28;20088;-74
2022/04/08 22:27:35;;;;;;;14.77;7.60;;;;;;;6.59;79.52;99137.72;10371693;28;20442;-76
2022/04/08 22:32:36;;;;;;;13.90;7.75;;;;;;;8.07;79.12;99363.09;10371203;28;20108;-75
2022/04/08 22:37:37;;;;;;;18.80;7.88;;;;;;;7.34;79.31;99271.03;10370720;28;20048;-74
2022/04/08 22:42:39;;;;;;;18.25;8.25;;;;;;;7.78;80.10;99356.66;10371432;28;20049;-74
2022/04/08 22:47:40;;;;;;;22.02;8.60;;;;;;;6.36;80.48;99150.81;10379673;28;20044;-75
2022/04/08 22:52:40;;;;;;;17.23;8.27;;;;;;;6.42;80.39;99192.34;10379836;28;20061;-75
2022/04/08 22:57:41;;;;;;;22.52;8.90;;;;;;;7.61;80.11;99396.56;10377238;28;20424;-75
2022/04/08 23:02:43;;;;;;;18.58;9.75;;;;;;;7.82;80.79;99438.28;10378307;28;20073;-73
2022/04/08 23:07:49;;;;;;;26.98;10.63;;;;;;;7.29;81.79;99372.72;10377270;28;20065;-74
2022/04/08 23:12:49;;;;;;;22.42;9.65;;;;;;;7.60;80.55;99467.13;10378063;28;20042;-74
2022/04/08 23:17:50;;;;;;;19.40;9.82;;;;;;;6.84;81.22;99355.69;10377647;28;20489;-74